createdAt,value
2019-05-23T00:01:54.568Z,11.33
2019-05-23T00:06:56.288Z,11.20
2019-05-23T00:11:58.303Z,11.16
2019-05-23T00:16:59.856Z,11.17
2019-05-23T00:22:02.044Z,11.13
2019-05-23T00:27:04.068Z,11.14
2019-05-23T00:32:05.602Z,11.11
2019-05-23T00:37:07.472Z,11.04
2019-05-23T00:42:09.253Z,10.98
2019-05-23T00:47:10.698Z,10.92
2019-05-23T00:52:12.204Z,10.85
2019-05-23T00:57:14.011Z,10.79
2019-05-23T01:02:15.553Z,10.77
2019-05-23T01:07:17.542Z,10.74
2019-05-23T01:12:19.235Z,10.73
2019-05-23T01:17:20.913Z,10.73
2019-05-23T01:22:22.506Z,10.75
2019-05-23T01:27:24.319Z,10.74
2019-05-23T01:32:26.106Z,10.74
2019-05-23T01:37:27.752Z,10.69
2019-05-23T01:42:29.298Z,10.65
2019-05-23T01:47:30.980Z,10.61
2019-05-23T01:52:32.523Z,10.54
2019-05-23T01:57:34.693Z,10.55
2019-05-23T02:02:36.205Z,10.57
2019-05-23T02:07:37.763Z,10.55
2019-05-23T02:12:39.312Z,10.55
2019-05-23T02:17:40.722Z,10.57
2019-05-23T02:22:42.579Z,10.55
2019-05-23T02:27:45.028Z,10.52
2019-05-23T02:32:46.617Z,10.46
2019-05-23T02:37:48.482Z,10.46
2019-05-23T02:42:50.298Z,10.41
2019-05-23T02:47:52.142Z,10.38
2019-05-23T02:52:53.929Z,10.36
2019-05-23T02:57:59.126Z,10.32
2019-05-23T03:03:00.859Z,10.26
2019-05-23T03:08:02.857Z,10.24
2019-05-23T03:13:04.353Z,10.19
2019-05-23T03:18:05.633Z,10.14
2019-05-23T03:23:09.968Z,10.07
2019-05-23T03:28:11.730Z,10.05
2019-05-23T03:33:13.262Z,10.01
2019-05-23T03:38:14.844Z,9.96
2019-05-23T03:43:16.322Z,9.94
2019-05-23T03:48:17.823Z,9.93
2019-05-23T03:53:19.754Z,9.91
2019-05-23T03:58:21.620Z,9.96
2019-05-23T04:03:23.573Z,9.91
2019-05-23T04:08:25.207Z,9.93
2019-05-23T04:13:27.433Z,9.96
2019-05-23T04:18:29.040Z,10.00
2019-05-23T04:23:30.606Z,10.05
2019-05-23T04:28:32.160Z,10.13
2019-05-23T04:33:33.600Z,10.19
2019-05-23T04:38:36.471Z,10.25
2019-05-23T04:43:38.763Z,10.32
2019-05-23T04:48:40.276Z,10.39
2019-05-23T04:53:41.989Z,10.48
2019-05-23T04:58:43.473Z,10.54
2019-05-23T05:03:46.325Z,10.63
2019-05-23T05:08:47.844Z,10.72
2019-05-23T05:13:49.612Z,10.81
2019-05-23T05:18:51.091Z,10.92
2019-05-23T05:23:52.982Z,11.05
2019-05-23T05:28:54.907Z,11.17
2019-05-23T05:33:56.488Z,11.36
2019-05-23T05:38:58.427Z,11.53
2019-05-23T05:44:00.228Z,11.69
2019-05-23T05:49:01.829Z,11.83
2019-05-23T05:54:03.481Z,11.88
2019-05-23T05:59:05.597Z,11.89
2019-05-23T06:04:07.849Z,11.95
2019-05-23T06:09:09.831Z,12.05
2019-05-23T06:14:11.406Z,12.18
2019-05-23T06:19:12.821Z,12.33
2019-05-23T06:24:14.679Z,12.53
2019-05-23T06:29:16.367Z,12.67
2019-05-23T06:34:17.940Z,12.85
2019-05-23T06:39:19.472Z,13.04
2019-05-23T06:44:21.322Z,13.21
2019-05-23T06:49:22.954Z,13.39
2019-05-23T06:54:24.631Z,13.64
2019-05-23T06:59:26.041Z,13.88
2019-05-23T07:04:28.553Z,14.13
2019-05-23T07:09:30.095Z,14.40
2019-05-23T07:14:32.275Z,14.87
2019-05-23T07:19:33.754Z,15.14
2019-05-23T07:24:35.747Z,15.35
2019-05-23T07:29:37.853Z,15.60
2019-05-23T07:34:39.404Z,15.97
2019-05-23T07:39:40.975Z,16.63
2019-05-23T07:44:48.333Z,17.11
2019-05-23T07:49:45.951Z,17.32
2019-05-23T07:54:48.149Z,17.61
2019-05-23T07:59:49.705Z,17.79
2019-05-23T08:04:51.378Z,18.03
2019-05-23T08:09:53.287Z,18.37
2019-05-23T08:14:55.002Z,18.70
2019-05-23T08:19:56.531Z,19.18
2019-05-23T08:24:58.698Z,19.58
2019-05-23T08:30:02.358Z,20.00
2019-05-23T08:35:04.557Z,20.33
2019-05-23T08:40:06.084Z,20.62
2019-05-23T08:45:08.169Z,20.79
2019-05-23T08:50:10.078Z,21.08
2019-05-23T08:55:18.828Z,21.53
2019-05-23T09:00:20.775Z,21.57
2019-05-23T09:05:22.302Z,21.69
2019-05-23T09:10:23.868Z,21.60
2019-05-23T09:15:25.455Z,21.82
2019-05-23T09:20:26.982Z,22.09
2019-05-23T09:25:28.852Z,22.42
2019-05-23T09:30:30.350Z,22.40
2019-05-23T09:35:31.914Z,22.08
2019-05-23T09:40:33.433Z,22.22
2019-05-23T09:45:35.686Z,22.39
2019-05-23T09:50:37.503Z,22.21
2019-05-23T09:55:39.034Z,22.14
2019-05-23T10:00:40.535Z,22.44
2019-05-23T10:05:44.028Z,22.92
2019-05-23T10:10:45.562Z,22.96
2019-05-23T10:15:47.441Z,22.99
2019-05-23T10:20:49.411Z,23.15
2019-05-23T10:25:50.917Z,23.47
2019-05-23T10:30:52.457Z,23.27
2019-05-23T10:36:00.436Z,23.13
2019-05-23T10:40:57.405Z,23.59
2019-05-23T10:45:59.311Z,23.78
2019-05-23T10:51:01.218Z,23.67
2019-05-23T10:56:02.706Z,23.57
2019-05-23T11:01:04.572Z,23.48
2019-05-23T11:06:15.647Z,23.55
2019-05-23T11:11:14.323Z,23.67
2019-05-23T11:16:14.230Z,23.55
2019-05-23T11:21:16.654Z,23.73
2019-05-23T11:26:18.123Z,23.88
2019-05-23T11:31:19.689Z,23.91
2019-05-23T11:36:34.424Z,24.10
2019-05-23T11:41:25.143Z,24.07
2019-05-23T11:46:26.644Z,24.19
2019-05-23T11:51:28.332Z,24.08
2019-05-23T11:56:29.942Z,24.29
2019-05-23T12:01:31.496Z,24.24
2019-05-23T12:06:51.700Z,24.21
2019-05-23T12:11:42.510Z,23.95
2019-05-23T12:16:41.868Z,24.13
2019-05-23T12:21:44.039Z,24.52
2019-05-23T12:26:46.270Z,24.83
2019-05-23T12:31:49.510Z,24.83
2019-05-23T12:36:51.271Z,24.90
2019-05-23T12:41:52.768Z,25.05
2019-05-23T12:46:54.317Z,24.97
2019-05-23T12:51:56.394Z,24.84
2019-05-23T12:56:58.092Z,24.84
2019-05-23T13:01:59.782Z,24.74
2019-05-23T13:07:01.150Z,24.99
2019-05-23T13:12:02.825Z,24.99
2019-05-23T13:17:04.342Z,24.87
2019-05-23T13:22:06.638Z,24.86
2019-05-23T13:27:08.230Z,24.72
2019-05-23T13:32:09.761Z,24.72
2019-05-23T13:37:16.474Z,24.93
2019-05-23T13:42:15.167Z,24.86
2019-05-23T13:47:16.687Z,25.21
2019-05-23T13:52:18.260Z,25.21
2019-05-23T13:57:19.746Z,25.19
2019-05-23T14:02:21.647Z,25.15
2019-05-23T14:07:23.478Z,25.44
2019-05-23T14:12:25.119Z,25.18
2019-05-23T14:17:26.740Z,25.08
2019-05-23T14:22:28.569Z,25.11
2019-05-23T14:27:30.321Z,25.35
2019-05-23T14:32:31.919Z,25.73
2019-05-23T14:37:33.888Z,25.77
2019-05-23T14:42:35.536Z,25.48
2019-05-23T14:47:37.658Z,25.60
2019-05-23T14:52:39.204Z,25.15
2019-05-23T14:57:41.194Z,25.43
2019-05-23T15:02:42.737Z,25.52
2019-05-23T15:07:44.117Z,25.20
2019-05-23T15:12:45.427Z,25.18
2019-05-23T15:17:47.166Z,25.20
2019-05-23T15:22:48.712Z,25.48
2019-05-23T15:27:50.640Z,25.79
2019-05-23T15:32:51.996Z,25.72
2019-05-23T15:37:53.527Z,25.54
2019-05-23T15:42:55.448Z,25.34
2019-05-23T15:47:56.741Z,25.44
2019-05-23T15:52:58.657Z,25.72
2019-05-23T15:58:00.628Z,25.97
2019-05-23T16:03:02.193Z,26.27
2019-05-23T16:08:03.937Z,26.16
2019-05-23T16:13:05.879Z,26.06
2019-05-23T16:18:07.575Z,25.80
2019-05-23T16:23:09.173Z,25.61
2019-05-23T16:28:10.744Z,25.40
2019-05-23T16:33:12.664Z,25.26
2019-05-23T16:38:14.465Z,25.04
2019-05-23T16:43:16.331Z,25.18
2019-05-23T16:48:17.830Z,25.43
2019-05-23T16:53:19.497Z,25.53
2019-05-23T16:58:21.685Z,25.42
2019-05-23T17:03:23.470Z,25.35
2019-05-23T17:08:25.283Z,25.68
2019-05-23T17:13:28.994Z,25.75
2019-05-23T17:18:30.811Z,25.76
2019-05-23T17:23:33.704Z,25.85
2019-05-23T17:28:38.590Z,26.97
2019-05-23T17:33:40.690Z,28.43
2019-05-23T17:38:43.078Z,28.30
2019-05-23T17:43:44.557Z,27.35
2019-05-23T17:48:49.218Z,26.80
2019-05-23T17:53:50.684Z,26.37
2019-05-23T17:58:52.542Z,25.96
2019-05-23T18:03:54.451Z,25.68
2019-05-23T18:08:56.013Z,25.33
2019-05-23T18:13:57.959Z,25.04
2019-05-23T18:19:00.429Z,24.78
2019-05-23T18:24:02.019Z,24.34
2019-05-23T18:29:03.674Z,24.17
2019-05-23T18:34:05.178Z,24.17
2019-05-23T18:39:07.187Z,24.03
2019-05-23T18:44:08.745Z,23.86
2019-05-23T18:49:10.275Z,23.70
2019-05-23T18:54:11.835Z,23.53
2019-05-23T18:59:13.660Z,23.33
2019-05-23T19:04:15.207Z,23.10
2019-05-23T19:09:17.172Z,22.82
2019-05-23T19:14:19.179Z,22.53
2019-05-23T19:19:20.755Z,22.27
2019-05-23T19:24:22.519Z,22.07
2019-05-23T19:29:24.423Z,21.93
2019-05-23T19:34:26.709Z,21.81
2019-05-23T19:39:28.248Z,21.63
2019-05-23T19:44:30.040Z,21.43
2019-05-23T19:49:31.560Z,21.18
2019-05-23T19:54:33.406Z,20.95
2019-05-23T19:59:35.339Z,20.92
2019-05-23T20:04:36.872Z,20.57
2019-05-23T20:09:39.464Z,20.31
2019-05-23T20:14:41.385Z,20.10
2019-05-23T20:19:42.978Z,19.84
2019-05-23T20:24:45.187Z,19.51
2019-05-23T20:29:46.754Z,19.24
2019-05-23T20:34:48.605Z,19.06
2019-05-23T20:39:50.192Z,18.88
2019-05-23T20:44:51.596Z,18.74
2019-05-23T20:49:53.841Z,18.55
2019-05-23T20:54:55.598Z,18.42
2019-05-23T20:59:57.100Z,18.19
2019-05-23T21:04:58.696Z,18.01
2019-05-23T21:10:00.566Z,17.88
2019-05-23T21:15:02.143Z,17.75
2019-05-23T21:20:04.047Z,17.63
2019-05-23T21:25:05.594Z,17.67
2019-05-23T21:30:07.109Z,17.53
2019-05-23T21:35:09.699Z,17.42
2019-05-23T21:40:15.907Z,17.39
2019-05-23T21:45:17.467Z,17.27
2019-05-23T21:50:19.324Z,17.08
2019-05-23T21:55:34.610Z,16.98
2019-05-23T22:01:06.017Z,16.89
2019-05-23T22:06:10.373Z,16.83
2019-05-23T22:11:12.320Z,16.64
2019-05-23T22:16:13.961Z,16.47
2019-05-23T22:21:15.466Z,16.45
2019-05-23T22:26:17.472Z,16.42
2019-05-23T22:31:19.202Z,16.21
2019-05-23T22:36:21.510Z,16.07
2019-05-23T22:41:23.307Z,16.02
2019-05-23T22:46:24.786Z,15.92
2019-05-23T22:51:26.341Z,15.92
2019-05-23T22:56:27.870Z,15.96
2019-05-23T23:01:29.626Z,16.02
2019-05-23T23:06:31.089Z,15.95
2019-05-23T23:11:32.569Z,15.71
2019-05-23T23:16:34.696Z,15.55
2019-05-23T23:21:36.488Z,15.44
2019-05-23T23:26:38.007Z,15.38
2019-05-23T23:31:39.660Z,15.34
2019-05-23T23:36:41.386Z,15.34
2019-05-23T23:41:42.881Z,15.23
2019-05-23T23:46:44.477Z,15.25
2019-05-23T23:51:45.981Z,15.23
2019-05-23T23:56:48.157Z,15.16
